Time;durP1;ratioP1;P1;durP2;ratioP2;P2;SDS_P1;SDS_P2;PMS_P1;PMS_P2;Temp;Humidity;BMP_temperature;BMP_pressure;BME280_temperature;BME280_humidity;BME280_pressure;Samples;Min_cycle;Max_cycle;Signal;HPM_P1;HPM_P2
2023/10/02 00:02:05;;;;;;;25.08;9.85;;;;;;;14.55;100.00;101813.50;4966877;28;20038;-67
2023/10/02 00:04:34;;;;;;;29.42;10.90;;;;;;;14.54;100.00;101813.63;4964715;28;20053;-66
2023/10/02 00:07:05;;;;;;;28.58;10.10;;;;;;;14.52;100.00;101815.59;4969193;28;20026;-67
2023/10/02 00:09:38;;;;;;;23.55;9.63;;;;;;;14.47;100.00;101816.06;4961866;28;20043;-67
2023/10/02 00:12:13;;;;;;;23.70;10.33;;;;;;;14.44;100.00;101820.78;4968130;28;20068;-67
2023/10/02 00:14:42;;;;;;;26.33;9.43;;;;;;;14.43;100.00;101826.97;4967119;28;20086;-67
2023/10/02 00:17:14;;;;;;;23.33;9.38;;;;;;;14.39;100.00;101823.84;4963446;28;20109;-67
2023/10/02 00:19:45;;;;;;;21.60;9.80;;;;;;;14.37;100.00;101823.19;4985170;28;20587;-67
2023/10/02 00:24:57;;;;;;;23.48;8.93;;;;;;;14.31;100.00;101816.81;4967042;28;20066;-67
2023/10/02 00:27:23;;;;;;;27.60;8.75;;;;;;;14.29;100.00;101812.72;4967268;28;20497;-67
2023/10/02 00:29:52;;;;;;;26.20;10.00;;;;;;;14.29;100.00;101813.53;4967426;28;20062;-67
2023/10/02 00:32:19;;;;;;;25.48;10.45;;;;;;;14.28;100.00;101818.91;4959651;28;20542;-67
2023/10/02 00:34:46;;;;;;;22.25;8.75;;;;;;;14.27;100.00;101819.88;4964369;28;20043;-66
2023/10/02 00:37:15;;;;;;;21.95;9.15;;;;;;;14.28;100.00;101813.69;4961344;28;20039;-67
2023/10/02 00:39:41;;;;;;;23.60;9.73;;;;;;;14.28;100.00;101813.69;4968537;28;20289;-67
2023/10/02 00:45:01;;;;;;;26.00;10.57;;;;;;;14.18;100.00;101813.81;4961348;28;20666;-67
2023/10/02 00:47:40;;;;;;;23.08;9.63;;;;;;;14.13;100.00;101822.09;4967240;28;20126;-67
2023/10/02 00:50:08;;;;;;;25.17;9.32;;;;;;;14.12;100.00;101810.03;4957061;28;20050;-66
2023/10/02 00:52:40;;;;;;;22.88;9.27;;;;;;;14.10;100.00;101813.78;4966987;28;20050;-67
2023/10/02 00:55:11;;;;;;;23.85;10.05;;;;;;;14.09;100.00;101807.75;4963518;28;20140;-67
2023/10/02 00:57:38;;;;;;;22.67;9.32;;;;;;;14.04;100.00;101807.38;4964995;28;20473;-67
2023/10/02 01:00:55;;;;;;;20.08;8.73;;;;;;;14.02;100.00;101817.16;4983261;28;20038;-67
2023/10/02 01:02:57;;;;;;;23.42;9.63;;;;;;;14.00;100.00;101809.47;4960406;28;20086;-67
2023/10/02 01:05:30;;;;;;;26.58;9.30;;;;;;;13.98;100.00;101805.41;4984752;28;20067;-67
2023/10/02 01:07:59;;;;;;;24.35;9.98;;;;;;;13.98;100.00;101805.41;4975060;28;20060;-68
2023/10/02 01:10:30;;;;;;;22.02;9.02;;;;;;;13.97;100.00;101814.19;4954117;28;20046;-67
2023/10/02 01:13:01;;;;;;;22.88;8.70;;;;;;;13.96;100.00;101807.34;4969130;28;20491;-67
2023/10/02 01:15:28;;;;;;;22.88;8.65;;;;;;;13.97;100.00;101809.78;4970479;28;20039;-67
2023/10/02 01:18:18;;;;;;;23.10;9.15;;;;;;;13.98;100.00;101806.22;4974724;28;20051;-67
2023/10/02 01:20:45;;;;;;;21.13;8.93;;;;;;;13.96;100.00;101804.72;4970995;28;20039;-67
2023/10/02 01:23:16;;;;;;;19.60;8.65;;;;;;;13.93;100.00;101811.06;4966248;28;20402;-67
2023/10/02 01:25:44;;;;;;;17.75;7.95;;;;;;;13.91;100.00;101799.16;4959753;28;20043;-67
2023/10/02 01:28:13;;;;;;;22.45;9.25;;;;;;;13.87;100.00;101806.47;4980201;28;20038;-67
2023/10/02 01:30:41;;;;;;;19.92;8.50;;;;;;;13.85;100.00;101802.38;4952296;28;20484;-68
2023/10/02 01:33:11;;;;;;;18.88;7.95;;;;;;;13.81;100.00;101801.88;4974700;28;20054;-67
2023/10/02 01:35:38;;;;;;;19.73;7.85;;;;;;;13.78;100.00;101805.56;4968864;28;20233;-67
2023/10/02 01:38:12;;;;;;;26.23;8.65;;;;;;;13.79;100.00;101801.22;4969275;28;20054;-67
2023/10/02 01:40:45;;;;;;;19.35;8.13;;;;;;;13.77;100.00;101805.75;4989559;28;20067;-67
2023/10/02 01:43:12;;;;;;;;;;;;;;;13.78;100.00;101812.59;4964583;28;20124;-67
2023/10/02 01:45:42;;;;;;;22.92;8.98;;;;;;;13.81;100.00;101810.50;4973465;28;22587;-67
2023/10/02 01:49:00;;;;;;;22.13;8.52;;;;;;;13.80;100.00;101813.25;4970524;28;20175;-68
2023/10/02 01:51:20;;;;;;;20.13;8.38;;;;;;;13.79;100.00;101807.22;4957484;28;20102;-67
2023/10/02 01:53:59;;;;;;;17.33;7.80;;;;;;;13.77;100.00;101806.56;4988747;28;20046;-67
2023/10/02 01:56:27;;;;;;;19.60;9.55;;;;;;;13.85;100.00;101803.19;4973104;28;20047;-67
2023/10/02 01:58:54;;;;;;;21.92;8.35;;;;;;;13.81;100.00;101807.09;4954983;28;20071;-67
2023/10/02 02:01:21;;;;;;;27.83;9.65;;;;;;;13.84;100.00;101804.16;4982078;28;20042;-67
2023/10/02 02:03:49;;;;;;;21.48;9.25;;;;;;;13.85;100.00;101800.59;4970083;28;20035;-67
2023/10/02 02:06:20;;;;;;;25.50;9.13;;;;;;;13.83;100.00;101799.91;4958119;28;20864;-67
2023/10/02 02:08:49;;;;;;;20.08;8.63;;;;;;;13.80;100.00;101793.22;4973693;28;20035;-67
2023/10/02 02:11:20;;;;;;;24.23;9.00;;;;;;;13.80;100.00;101800.22;4970431;28;20049;-67
2023/10/02 02:13:50;;;;;;;19.45;8.23;;;;;;;13.76;100.00;101799.69;4989732;28;20041;-67
2023/10/02 02:16:21;;;;;;;19.73;9.02;;;;;;;13.79;100.00;101790.78;4967200;28;20101;-67
2023/10/02 02:18:53;;;;;;;22.70;8.45;;;;;;;13.76;100.00;101789.28;4971364;28;20042;-67
2023/10/02 02:21:24;;;;;;;19.58;8.43;;;;;;;13.76;100.00;101791.06;4981390;28;20449;-67
2023/10/02 02:24:08;;;;;;;24.98;8.98;;;;;;;13.76;100.00;101791.88;4959008;28;20035;-67
2023/10/02 02:26:36;;;;;;;20.15;9.00;;;;;;;13.77;100.00;101797.94;4974364;28;20046;-67
2023/10/02 02:29:02;;;;;;;20.70;8.57;;;;;;;13.76;100.00;101794.50;4984432;28;20747;-67
2023/10/02 02:31:32;;;;;;;18.30;8.05;;;;;;;13.75;100.00;101789.44;4985830;28;20705;-67
2023/10/02 02:34:14;;;;;;;19.77;8.25;;;;;;;13.73;100.00;101792.22;4985301;28;20050;-67
2023/10/02 02:36:42;;;;;;;20.05;8.55;;;;;;;13.71;100.00;101788.09;4973955;28;20151;-67
2023/10/02 02:39:20;;;;;;;18.60;8.43;;;;;;;13.69;100.00;101793.47;4972748;28;20037;-68
2023/10/02 02:44:46;;;;;;;20.02;7.97;;;;;;;13.64;100.00;101782.69;4967567;28;20043;-67
2023/10/02 02:47:16;;;;;;;22.75;9.90;;;;;;;13.63;100.00;101781.03;4968290;28;23243;-67
2023/10/02 02:49:58;;;;;;;22.13;8.20;;;;;;;13.62;100.00;101782.03;4981148;28;20046;-67
2023/10/02 02:52:25;;;;;;;22.67;8.13;;;;;;;13.61;100.00;101775.16;4968894;28;20134;-67
2023/10/02 02:55:12;;;;;;;18.95;7.63;;;;;;;13.58;100.00;101776.31;4964111;28;20047;-67
2023/10/02 02:57:45;;;;;;;18.30;8.13;;;;;;;13.59;100.00;101777.13;4985631;28;20417;-67
2023/10/02 03:00:25;;;;;;;26.88;9.57;;;;;;;13.60;100.00;101769.16;4965671;28;20381;-67
2023/10/02 03:02:53;;;;;;;20.48;8.10;;;;;;;13.56;100.00;101772.19;4982361;28;20503;-67
2023/10/02 03:05:21;;;;;;;21.55;7.82;;;;;;;13.53;100.00;101764.69;4965774;28;20046;-67
2023/10/02 03:07:54;;;;;;;20.77;7.70;;;;;;;13.48;100.00;101772.94;4963673;28;20126;-67
2023/10/02 03:10:23;;;;;;;22.48;8.43;;;;;;;13.46;100.00;101767.06;4970114;28;20405;-67
2023/10/02 03:12:50;;;;;;;24.60;8.48;;;;;;;13.43;100.00;101770.81;4974256;28;20046;-67
2023/10/02 03:15:20;;;;;;;20.85;8.88;;;;;;;13.41;100.00;101764.09;4965325;28;20038;-67
2023/10/02 03:17:49;;;;;;;22.80;8.85;;;;;;;13.41;100.00;101759.72;4970902;28;20046;-67
2023/10/02 03:20:24;;;;;;;18.63;8.05;;;;;;;13.42;100.00;101757.94;4967162;28;20046;-67
2023/10/02 03:22:53;;;;;;;22.85;8.95;;;;;;;13.41;100.00;101759.72;4963017;28;20101;-67
2023/10/02 03:25:28;;;;;;;24.00;9.25;;;;;;;13.42;100.00;101756.13;4955775;28;20043;-67
2023/10/02 03:27:57;;;;;;;20.70;9.07;;;;;;;13.41;100.00;101758.88;4966928;28;20497;-67
2023/10/02 03:30:35;;;;;;;19.02;8.75;;;;;;;13.40;100.00;101755.47;4971123;28;20818;-67
2023/10/02 03:33:03;;;;;;;24.33;9.30;;;;;;;13.39;100.00;101756.47;4971821;28;20039;-67
2023/10/02 03:35:38;;;;;;;28.63;9.90;;;;;;;13.37;100.00;101754.94;4969318;28;20046;-67
2023/10/02 03:38:03;;;;;;;21.15;9.10;;;;;;;13.36;100.00;101758.53;4964311;28;20047;-67
2023/10/02 03:40:31;;;;;;;25.30;10.32;;;;;;;13.35;100.00;101760.31;4982476;28;20175;-67
2023/10/02 03:43:18;;;;;;;24.70;9.27;;;;;;;13.35;100.00;101762.91;4964680;28;20046;-67
2023/10/02 03:45:44;;;;;;;27.90;9.88;;;;;;;13.36;100.00;101751.53;4970860;28;20182;-67
2023/10/02 03:48:10;;;;;;;23.95;10.43;;;;;;;13.43;100.00;101751.75;4973236;28;20831;-67
2023/10/02 03:50:38;;;;;;;31.80;12.60;;;;;;;13.52;100.00;101742.19;4985762;28;20054;-67
2023/10/02 03:53:12;;;;;;;26.98;10.68;;;;;;;13.57;100.00;101742.56;4960698;28;20042;-67
2023/10/02 03:55:39;;;;;;;27.52;11.20;;;;;;;13.60;100.00;101740.47;4967242;28;20407;-67
2023/10/02 03:58:06;;;;;;;24.63;10.35;;;;;;;13.52;100.00;101743.00;4980975;28;20045;-67
2023/10/02 04:00:43;;;;;;;33.08;11.73;;;;;;;13.56;100.00;101746.13;4969814;28;20196;-67
2023/10/02 04:03:09;;;;;;;32.22;12.43;;;;;;;13.52;100.00;101744.81;4971763;28;20042;-67
2023/10/02 04:05:42;;;;;;;30.30;11.50;;;;;;;13.47;100.00;101742.69;4966692;28;20046;-67
2023/10/02 04:08:21;;;;;;;29.58;12.30;;;;;;;13.49;100.00;101745.94;4965829;28;20046;-67
2023/10/02 04:10:55;;;;;;;36.88;13.45;;;;;;;13.58;100.00;101746.78;4985511;28;20576;-67
2023/10/02 04:13:23;;;;;;;28.35;12.00;;;;;;;13.60;100.00;101735.28;4965084;28;20061;-67
2023/10/02 04:15:53;;;;;;;27.00;11.57;;;;;;;13.62;100.00;101738.53;4953549;28;20038;-67
2023/10/02 04:18:45;;;;;;;34.42;12.80;;;;;;;13.61;100.00;101736.06;4965958;28;20043;-67
2023/10/02 04:21:09;;;;;;;30.10;13.15;;;;;;;13.63;100.00;101734.13;4967875;28;20412;-67
2023/10/02 04:23:40;;;;;;;27.08;11.05;;;;;;;13.55;100.00;101729.69;4985737;28;20105;-67
2023/10/02 04:26:20;;;;;;;29.63;11.80;;;;;;;13.50;100.00;101723.31;4979870;28;20046;-67
2023/10/02 04:29:13;;;;;;;30.85;13.40;;;;;;;13.51;100.00;101727.56;4983835;28;20050;-67
2023/10/02 04:31:42;;;;;;;29.13;11.18;;;;;;;13.48;100.00;101730.47;4971367;28;20054;-67
2023/10/02 04:36:48;;;;;;;27.73;12.27;;;;;;;13.51;100.00;101730.97;4971380;28;20456;-67
2023/10/02 04:42:19;;;;;;;28.15;11.25;;;;;;;13.47;100.00;101728.81;4980741;28;20540;-68
2023/10/02 04:44:47;;;;;;;30.02;10.95;;;;;;;13.42;100.00;101735.28;4970438;28;20042;-68
2023/10/02 04:47:19;;;;;;;29.33;12.15;;;;;;;13.46;100.00;101728.00;4965501;28;20496;-67
2023/10/02 04:52:55;;;;;;;27.02;10.93;;;;;;;13.49;100.00;101732.91;4965517;28;20067;-67
2023/10/02 04:55:28;;;;;;;34.85;12.07;;;;;;;13.53;100.00;101729.03;4968136;28;20058;-67
2023/10/02 04:58:08;;;;;;;29.40;12.30;;;;;;;13.47;100.00;101734.00;4972244;28;20042;-67
2023/10/02 05:03:30;;;;;;;28.58;11.10;;;;;;;13.39;100.00;101732.16;4968614;28;20038;-67
2023/10/02 05:05:58;;;;;;;29.75;12.65;;;;;;;13.35;100.00;101725.63;4970938;28;20086;-67
2023/10/02 05:11:07;;;;;;;34.63;11.82;;;;;;;13.41;100.00;101725.88;4968167;28;20043;-68
2023/10/02 05:16:38;;;;;;;38.25;11.90;;;;;;;13.52;100.00;101727.38;4967267;28;20529;-67
2023/10/02 05:19:05;;;;;;;34.47;11.73;;;;;;;13.41;100.00;101730.22;4961002;28;20054;-68
2023/10/02 05:21:49;;;;;;;28.58;11.80;;;;;;;13.37;100.00;101732.34;4969125;28;20125;-67
2023/10/02 05:24:16;;;;;;;29.38;11.20;;;;;;;13.30;100.00;101726.09;4965974;28;20429;-67
2023/10/02 05:26:46;;;;;;;23.33;10.52;;;;;;;13.28;100.00;101729.78;4982929;28;20127;-67
2023/10/02 05:29:17;;;;;;;27.25;10.48;;;;;;;13.26;100.00;101737.78;4965174;28;20069;-68
2023/10/02 05:31:47;;;;;;;25.75;10.90;;;;;;;13.30;100.00;101735.66;4968148;28;20540;-69
2023/10/02 05:34:23;;;;;;;28.35;10.60;;;;;;;13.23;100.00;101736.25;4982942;28;20054;-68
2023/10/02 05:37:11;;;;;;;29.35;12.18;;;;;;;13.27;100.00;101736.78;4967989;28;20126;-68
2023/10/02 05:39:40;;;;;;;29.88;11.88;;;;;;;13.28;100.00;101740.19;4950935;28;20503;-68
2023/10/02 05:42:13;;;;;;;26.85;11.27;;;;;;;13.22;100.00;101746.81;4971192;28;20112;-68
2023/10/02 05:44:39;;;;;;;31.42;13.13;;;;;;;13.22;100.00;101749.44;4969581;28;20085;-68
2023/10/02 05:47:05;;;;;;;24.75;10.32;;;;;;;13.19;100.00;101749.75;4971592;28;20517;-68
2023/10/02 05:49:31;;;;;;;24.02;10.93;;;;;;;13.17;100.00;101746.47;4967710;28;20027;-67
2023/10/02 05:52:00;;;;;;;27.88;11.35;;;;;;;13.16;100.00;101742.22;4988562;28;20038;-67
2023/10/02 05:54:29;;;;;;;29.65;11.13;;;;;;;13.17;100.00;101754.28;4970263;28;20043;-67
2023/10/02 05:57:19;;;;;;;26.90;11.93;;;;;;;13.24;100.00;101752.69;4975862;28;20117;-68
2023/10/02 05:59:47;;;;;;;31.75;12.25;;;;;;;13.23;100.00;101745.88;4970528;28;20125;-67
2023/10/02 06:02:20;;;;;;;23.80;10.55;;;;;;;13.22;100.00;101755.47;4972105;28;20119;-67
2023/10/02 06:04:52;;;;;;;36.88;11.90;;;;;;;13.28;100.00;101751.47;4984152;28;20367;-67
2023/10/02 06:07:43;;;;;;;33.30;12.38;;;;;;;13.33;100.00;101749.22;4971527;28;20061;-67
2023/10/02 06:10:18;;;;;;;37.72;12.45;;;;;;;13.40;100.00;101755.47;4973560;28;20041;-67
2023/10/02 06:12:46;;;;;;;33.17;12.80;;;;;;;13.41;100.00;101758.88;4970192;28;20501;-67
2023/10/02 06:17:58;;;;;;;32.55;12.98;;;;;;;13.42;100.00;101761.34;4965362;28;20039;-67
2023/10/02 06:20:23;;;;;;;32.35;13.88;;;;;;;13.50;100.00;101754.56;4960732;28;20133;-68
2023/10/02 06:22:50;;;;;;;30.58;12.85;;;;;;;13.55;100.00;101755.75;4983364;28;20034;-68
2023/10/02 06:25:18;;;;;;;35.85;15.27;;;;;;;13.65;100.00;101758.25;4966781;28;20062;-68
2023/10/02 06:27:47;;;;;;;33.60;13.88;;;;;;;13.69;100.00;101759.56;4963105;28;20413;-67
2023/10/02 06:30:19;;;;;;;36.53;14.27;;;;;;;13.75;100.00;101756.38;4970096;28;20441;-66
2023/10/02 06:32:55;;;;;;;33.47;13.52;;;;;;;13.81;100.00;101758.38;4968273;28;20050;-67
2023/10/02 06:35:24;;;;;;;33.05;14.27;;;;;;;13.85;100.00;101758.06;4972948;28;20062;-67
2023/10/02 06:37:50;;;;;;;36.03;14.35;;;;;;;14.08;100.00;101747.91;4961816;28;20142;-67
2023/10/02 06:40:16;;;;;;;31.70;12.98;;;;;;;14.19;100.00;101755.47;4967125;28;20042;-67
2023/10/02 06:42:48;;;;;;;34.67;13.27;;;;;;;14.47;100.00;101742.19;4965227;28;20054;-67
2023/10/02 06:45:25;;;;;;;35.92;13.82;;;;;;;14.75;100.00;101748.00;4968331;28;20054;-67
2023/10/02 06:47:51;;;;;;;33.33;12.93;;;;;;;15.16;100.00;101748.88;4988507;28;21224;-67
2023/10/02 06:50:31;;;;;;;29.38;12.60;;;;;;;15.44;100.00;101753.75;4966136;28;20042;-67
2023/10/02 06:52:58;;;;;;;31.50;13.13;;;;;;;15.67;100.00;101750.44;4955612;28;20468;-67
2023/10/02 06:55:26;;;;;;;36.80;14.25;;;;;;;15.88;100.00;101761.22;4949943;28;20529;-67
2023/10/02 06:57:56;;;;;;;28.95;11.32;;;;;;;16.09;100.00;101749.38;4965821;28;20102;-67
2023/10/02 07:00:25;;;;;;;32.22;13.13;;;;;;;16.30;100.00;101749.63;4964186;28;20262;-67
2023/10/02 07:02:57;;;;;;;29.48;11.80;;;;;;;16.45;100.00;101756.75;4965252;28;20145;-66
2023/10/02 07:05:27;;;;;;;28.92;12.07;;;;;;;16.52;99.63;101752.47;4966593;28;20042;-67
2023/10/02 07:08:01;;;;;;;31.13;12.27;;;;;;;16.55;98.40;101749.50;4973330;28;20170;-67
2023/10/02 07:10:42;;;;;;;28.10;11.88;;;;;;;16.53;98.66;101757.50;4968607;28;20045;-67
2023/10/02 07:13:18;;;;;;;30.25;12.15;;;;;;;16.69;97.79;101751.38;4974666;28;20038;-67
2023/10/02 07:15:44;;;;;;;31.88;11.93;;;;;;;16.81;97.06;101753.59;4974355;28;20406;-67
2023/10/02 07:18:12;;;;;;;31.45;11.55;;;;;;;16.99;96.03;101755.94;4967859;28;20041;-67
2023/10/02 07:20:44;;;;;;;32.08;12.25;;;;;;;17.14;95.35;101754.22;4967006;28;20034;-67
2023/10/02 07:23:19;;;;;;;31.58;10.10;;;;;;;17.17;94.99;101755.66;4962690;28;20101;-67
2023/10/02 07:25:51;;;;;;;27.23;11.73;;;;;;;17.58;93.19;101755.28;4968446;28;20795;-67
2023/10/02 07:28:20;;;;;;;31.40;12.65;;;;;;;18.12;90.91;101757.69;4967030;28;21878;-67
2023/10/02 07:30:46;;;;;;;30.38;11.45;;;;;;;18.68;87.96;101760.56;4972052;28;20034;-67
2023/10/02 07:33:12;;;;;;;27.08;11.57;;;;;;;18.77;85.81;101758.59;4969473;28;20031;-67
2023/10/02 07:35:38;;;;;;;27.73;10.93;;;;;;;19.18;84.89;101758.00;4962963;28;20516;-67
2023/10/02 07:38:08;;;;;;;27.35;11.52;;;;;;;19.20;82.85;101760.44;4987524;28;20655;-67
2023/10/02 07:40:46;;;;;;;30.48;11.13;;;;;;;19.69;81.44;101756.94;4968442;28;20058;-67
2023/10/02 07:43:19;;;;;;;30.00;11.07;;;;;;;19.57;81.09;101748.78;4963943;28;20568;-66
2023/10/02 07:45:45;;;;;;;30.73;10.95;;;;;;;19.52;81.34;101755.63;4971599;28;20047;-67
2023/10/02 07:48:12;;;;;;;26.48;10.43;;;;;;;19.32;81.94;101747.59;4973128;28;20154;-67
2023/10/02 07:50:39;;;;;;;28.98;10.30;;;;;;;19.71;80.99;101746.22;4972092;28;20038;-67
2023/10/02 07:53:06;;;;;;;24.90;10.52;;;;;;;19.71;80.39;101744.41;4965205;28;20505;-67
2023/10/02 07:55:42;;;;;;;27.85;11.32;;;;;;;19.58;79.74;101741.69;4967530;28;20501;-66
2023/10/02 07:58:08;;;;;;;27.25;10.85;;;;;;;19.71;79.49;101740.97;4983526;28;20126;-67
2023/10/02 08:00:38;;;;;;;24.90;10.65;;;;;;;20.02;79.15;101743.16;4969465;28;20037;-67
2023/10/02 08:05:57;;;;;;;29.40;10.93;;;;;;;20.32;76.58;101741.03;4968461;28;20109;-67
2023/10/02 08:08:32;;;;;;;24.55;10.55;;;;;;;20.29;77.08;101741.47;4965423;28;20109;-67
2023/10/02 08:11:06;;;;;;;29.20;10.63;;;;;;;20.81;75.71;101736.53;4984993;28;20048;-67
2023/10/02 08:13:35;;;;;;;28.35;10.15;;;;;;;21.07;73.35;101741.00;4979264;28;20081;-67
2023/10/02 08:16:17;;;;;;;25.23;10.23;;;;;;;21.24;73.79;101741.41;4972294;28;20064;-67
2023/10/02 08:18:57;;;;;;;23.58;10.90;;;;;;;21.32;73.97;101735.94;4970092;28;20035;-67
2023/10/02 08:21:46;;;;;;;27.67;10.88;;;;;;;21.44;73.41;101736.13;4966180;28;20039;-67
2023/10/02 08:24:13;;;;;;;24.42;10.90;;;;;;;21.73;72.16;101734.03;4967590;28;20105;-67
2023/10/02 08:26:43;;;;;;;27.58;10.57;;;;;;;21.66;72.63;101734.06;4965105;28;20324;-67
2023/10/02 08:29:16;;;;;;;29.75;11.48;;;;;;;21.76;71.91;101729.16;4971590;28;20078;-67
2023/10/02 08:31:43;;;;;;;26.80;11.20;;;;;;;21.75;72.36;101727.53;4972949;28;20496;-67
2023/10/02 08:34:13;;;;;;;30.23;11.55;;;;;;;21.66;71.04;101733.25;4966215;28;20051;-67
2023/10/02 08:36:40;;;;;;;25.90;10.93;;;;;;;21.52;72.11;101727.19;4969921;28;20117;-67
2023/10/02 08:39:06;;;;;;;29.33;10.52;;;;;;;21.75;72.81;101724.06;4965622;28;20065;-66
2023/10/02 08:41:43;;;;;;;22.85;9.85;;;;;;;21.95;70.88;101711.63;4971902;28;20034;-67
2023/10/02 08:44:13;;;;;;;27.50;10.18;;;;;;;21.64;72.18;101716.81;4966622;28;20069;-67
2023/10/02 08:46:56;;;;;;;27.27;11.55;;;;;;;21.65;71.97;101711.31;4971140;28;20118;-66
2023/10/02 08:49:25;;;;;;;;;;;;;;;21.72;72.35;101713.94;4974574;28;22816;-66
2023/10/02 08:51:51;;;;;;;30.73;10.30;;;;;;;21.77;71.88;101707.03;4970040;28;19921;-67
2023/10/02 08:54:18;;;;;;;30.05;10.85;;;;;;;21.99;71.67;101708.56;4983985;28;20121;-67
2023/10/02 08:56:44;;;;;;;30.48;10.68;;;;;;;22.41;70.92;101715.06;4969192;28;20035;-67
2023/10/02 08:59:19;;;;;;;35.03;13.07;;;;;;;22.58;68.46;101712.72;4966279;28;20081;-67
2023/10/02 09:01:48;;;;;;;30.00;11.48;;;;;;;22.65;70.19;101712.69;4964018;28;20074;-67
2023/10/02 09:06:57;;;;;;;29.00;10.63;;;;;;;22.55;68.69;101713.97;4974393;28;20365;-68
2023/10/02 09:10:12;;;;;;;34.25;12.43;;;;;;;22.73;69.66;101707.97;4979661;28;20650;-67
2023/10/02 09:12:16;;;;;;;40.78;11.85;;;;;;;22.96;68.88;101703.09;4958671;28;20043;-67
2023/10/02 09:14:42;;;;;;;30.92;10.80;;;;;;;22.98;67.85;101707.16;4967823;28;20049;-67
2023/10/02 09:17:25;;;;;;;28.40;11.63;;;;;;;22.76;68.98;101711.19;4965401;28;20042;-67
2023/10/02 09:19:53;;;;;;;29.25;11.30;;;;;;;22.78;68.72;101717.06;4973601;28;20030;-67
2023/10/02 09:22:21;;;;;;;24.80;10.63;;;;;;;22.77;68.55;101710.94;4976060;28;20051;-67
2023/10/02 09:24:58;;;;;;;30.30;11.65;;;;;;;22.74;70.36;101722.78;4975967;28;20089;-67
2023/10/02 09:27:38;;;;;;;31.95;10.73;;;;;;;22.77;69.58;101718.09;4968753;28;20414;-67
2023/10/02 09:30:28;;;;;;;26.55;11.23;;;;;;;22.82;70.76;101713.78;4979556;28;20125;-68
2023/10/02 09:32:53;;;;;;;27.42;11.32;;;;;;;22.80;70.58;101712.38;4969445;28;20046;-67
2023/10/02 09:35:29;;;;;;;29.80;11.27;;;;;;;22.94;70.00;101712.06;4972196;28;20117;-67
2023/10/02 09:38:04;;;;;;;34.08;13.02;;;;;;;22.94;68.44;101703.28;4971763;28;20074;-67
2023/10/02 09:43:33;;;;;;;31.40;12.60;;;;;;;23.02;68.84;101689.81;4972820;28;20031;-67
2023/10/02 09:46:05;;;;;;;29.42;12.13;;;;;;;23.04;70.90;101681.69;4973168;28;20519;-67
2023/10/02 09:51:25;;;;;;;28.70;11.50;;;;;;;23.15;70.30;101669.56;4968711;28;20046;-67
2023/10/02 09:54:13;;;;;;;28.25;11.52;;;;;;;23.19;70.38;101666.28;4980783;28;20038;-67
2023/10/02 09:56:51;;;;;;;27.67;10.95;;;;;;;23.13;71.71;101667.97;4978161;28;20061;-68
2023/10/02 09:59:17;;;;;;;31.83;12.13;;;;;;;23.27;70.22;101676.56;4959812;28;20049;-66
2023/10/02 10:02:15;;;;;;;28.02;11.23;;;;;;;23.30;71.84;101675.31;4973652;28;20070;-68
2023/10/02 10:05:00;;;;;;;27.35;11.35;;;;;;;23.26;69.85;101680.25;4969681;28;20042;-67
2023/10/02 10:07:46;;;;;;;33.28;12.60;;;;;;;23.18;69.82;101677.06;4969958;28;20038;-68
2023/10/02 10:10:49;;;;;;;32.72;11.52;;;;;;;23.18;72.02;101683.16;4974123;28;20038;-67
2023/10/02 10:13:27;;;;;;;33.05;12.27;;;;;;;23.15;71.81;101678.34;4968031;28;20045;-67
2023/10/02 10:16:21;;;;;;;25.13;12.00;;;;;;;23.31;69.98;101675.09;4966020;28;20156;-67
2023/10/02 10:22:10;;;;;;;22.40;10.38;;;;;;;23.46;71.52;101674.72;4973890;28;20141;-67
2023/10/02 10:24:56;;;;;;;26.98;11.63;;;;;;;23.74;70.21;101662.81;4972941;28;20057;-68
2023/10/02 10:27:39;;;;;;;28.90;11.40;;;;;;;23.79;68.00;101663.00;4989694;28;20039;-68
2023/10/02 10:30:33;;;;;;;27.55;11.38;;;;;;;23.65;69.31;101653.56;4973723;28;20046;-67
2023/10/02 10:33:13;;;;;;;28.02;12.43;;;;;;;23.78;71.11;101656.03;4968437;28;20043;-68
2023/10/02 10:35:51;;;;;;;32.45;12.98;;;;;;;24.03;68.85;101645.31;4971014;28;20035;-67
2023/10/02 10:38:26;;;;;;;26.48;12.85;;;;;;;24.18;70.79;101652.84;4969756;28;21082;-67
2023/10/02 10:40:55;;;;;;;29.17;12.18;;;;;;;24.18;66.12;101647.56;4984078;28;20043;-67
2023/10/02 10:43:26;;;;;;;27.50;11.35;;;;;;;24.36;65.90;101641.41;4971167;28;20534;-68
2023/10/02 10:45:55;;;;;;;26.77;11.60;;;;;;;24.53;62.72;101635.47;4973308;28;20437;-68
2023/10/02 10:48:22;;;;;;;28.73;12.18;;;;;;;24.36;65.44;101636.09;4978689;28;20723;-67
2023/10/02 10:51:03;;;;;;;38.28;12.77;;;;;;;24.49;64.50;101627.13;4973129;28;20065;-67
2023/10/02 10:53:30;;;;;;;25.50;11.50;;;;;;;24.52;63.70;101624.03;4957082;28;20140;-68
2023/10/02 10:56:05;;;;;;;27.25;11.48;;;;;;;24.63;65.83;101633.84;4982077;28;20035;-68
2023/10/02 10:58:33;;;;;;;24.73;10.82;;;;;;;24.63;63.92;101630.38;4969334;28;20042;-68
2023/10/02 11:01:17;;;;;;;31.15;12.13;;;;;;;25.02;61.74;101630.72;4984555;28;20050;-67
2023/10/02 11:03:43;;;;;;;27.42;11.07;;;;;;;24.94;63.92;101637.19;4965034;28;20039;-68
2023/10/02 11:06:10;;;;;;;25.55;11.15;;;;;;;24.78;64.15;101633.38;4967991;28;20059;-68
2023/10/02 11:08:38;;;;;;;25.85;11.95;;;;;;;24.84;64.53;101632.44;4977522;28;20060;-67
2023/10/02 11:11:10;;;;;;;31.52;12.13;;;;;;;25.03;61.54;101621.72;4966809;28;20031;-67
2023/10/02 11:14:01;;;;;;;29.42;11.90;;;;;;;25.25;63.87;101641.31;4968918;28;20059;-68
2023/10/02 11:16:31;;;;;;;29.05;11.38;;;;;;;25.23;62.23;101627.47;4970970;28;20508;-68
2023/10/02 11:22:14;;;;;;;32.20;12.15;;;;;;;25.38;59.34;101623.53;4970300;28;20101;-69
2023/10/02 11:24:55;;;;;;;28.45;11.38;;;;;;;25.21;62.83;101628.75;4974592;28;20045;-68
2023/10/02 11:27:24;;;;;;;30.10;11.70;;;;;;;25.21;63.64;101620.78;4965063;28;20098;-67
2023/10/02 11:30:03;;;;;;;28.83;11.82;;;;;;;25.55;61.93;101621.75;4970023;28;20167;-68
2023/10/02 11:32:53;;;;;;;27.15;11.25;;;;;;;25.55;62.21;101619.09;4973530;28;20058;-68
2023/10/02 11:35:19;;;;;;;26.25;11.77;;;;;;;25.63;61.03;101621.34;4966620;28;20050;-68
2023/10/02 11:37:46;;;;;;;28.88;12.25;;;;;;;25.70;63.52;101617.78;4973548;28;20054;-68
2023/10/02 11:40:13;;;;;;;23.95;11.48;;;;;;;25.60;63.43;101611.22;4986729;28;20498;-68
2023/10/02 11:42:38;;;;;;;22.45;10.18;;;;;;;25.72;64.28;101613.81;4969404;28;20093;-68
2023/10/02 11:45:05;;;;;;;24.98;10.88;;;;;;;25.83;62.16;101610.31;4973005;28;20036;-67
2023/10/02 11:47:30;;;;;;;24.63;11.55;;;;;;;25.72;62.12;101608.50;4987570;28;20042;-68
2023/10/02 11:49:59;;;;;;;27.98;11.57;;;;;;;25.87;62.05;101599.22;4967197;28;20047;-67
2023/10/02 11:52:25;;;;;;;29.40;11.65;;;;;;;25.87;61.27;101602.66;4972392;28;20038;-68
2023/10/02 11:54:50;;;;;;;24.95;11.50;;;;;;;25.99;63.04;101599.97;4968393;28;20046;-68
2023/10/02 11:57:16;;;;;;;22.58;10.07;;;;;;;26.07;63.32;101596.13;4971955;28;20039;-68
2023/10/02 11:59:43;;;;;;;26.52;11.57;;;;;;;26.41;58.85;101584.44;4970028;28;20045;-67
2023/10/02 12:02:13;;;;;;;25.25;11.48;;;;;;;26.31;59.01;101581.63;4973689;28;20034;-68
2023/10/02 12:04:39;;;;;;;26.10;11.43;;;;;;;26.52;57.54;101580.09;4970648;28;20038;-68
2023/10/02 12:07:08;;;;;;;25.52;12.25;;;;;;;26.39;59.75;101572.44;4955456;28;20135;-69
2023/10/02 12:09:34;;;;;;;28.55;11.27;;;;;;;26.31;60.20;101573.66;4971159;28;20045;-68
2023/10/02 12:12:00;;;;;;;23.52;10.82;;;;;;;26.34;59.40;101577.69;4967770;28;20030;-69
2023/10/02 12:14:27;;;;;;;26.13;11.63;;;;;;;26.37;57.78;101570.03;4971208;28;20126;-68
2023/10/02 12:16:57;;;;;;;26.58;11.65;;;;;;;26.27;57.98;101564.56;4965805;28;20022;-68